KJRB/JRB METAR and TAF weather

Enter ICAO airport designator
Station Type Date Time Source
KJRB METAR 2019/04/18 20:56 UTC NOAA

KJRB 182056Z AUTO 14007KT 10SM CLR 16/11 A2993 RMK AO2 SLP134 T01610111 58035


Station Type Date Time Source
KJRB Decoded METAR 2019/04/18 20:56 UTC NOAA

Station name not available
Apr 18, 2019 - 04:56 PM EDT / 2019.04.18 2056 UTC
Wind: from the SE (140 degrees) at 8 MPH (7 KT):0
Visibility: 10 mile(s):0
Sky conditions: clear
Temperature: 61.0 F (16.1 C)
Dew Point: 52.0 F (11.1 C)
Relative Humidity: 72%
Pressure (altimeter): 29.93 in. Hg (1013 hPa)
Pressure tendency: 0.10 inches (3.5 hPa) lower than three hours ago
ob: KJRB 182056Z AUTO 14007KT 10SM CLR 16/11 A2993 RMK AO2 SLP134 T01610111 58035
cycle: 21

Station Type Date Time Source
KJRB TAF UTC NOAA

Error!

Example: see airport list